Time;durP1;ratioP1;P1;durP2;ratioP2;P2;SDS_P1;SDS_P2;PMS_P1;PMS_P2;Temp;Humidity;BMP_temperature;BMP_pressure;BME280_temperature;BME280_humidity;BME280_pressure;Samples;Min_cycle;Max_cycle;Signal;HPM_P1;HPM_P2
2022/01/19 00:01:34;;;;;;;8.05;6.78;;;-1.70;99.90;;;;;;4994801;28;20569;-74
2022/01/19 00:04:01;;;;;;;9.10;7.82;;;-1.70;99.90;;;;;;4972107;28;20097;-75
2022/01/19 00:06:29;;;;;;;8.35;6.93;;;-1.70;99.90;;;;;;4995874;28;20141;-74
2022/01/19 00:08:56;;;;;;;7.40;6.70;;;-1.70;99.90;;;;;;4996202;28;20453;-73
2022/01/19 00:11:24;;;;;;;12.02;7.50;;;-1.60;99.90;;;;;;5000652;28;20049;-73
2022/01/19 00:13:52;;;;;;;8.00;6.30;;;-1.50;99.90;;;;;;5014435;28;20127;-76
2022/01/19 00:16:21;;;;;;;8.00;6.10;;;-1.50;99.90;;;;;;4998026;28;20066;-75
2022/01/19 00:18:49;;;;;;;5.78;3.83;;;-1.50;99.90;;;;;;5009432;28;20062;-70
2022/01/19 00:21:16;;;;;;;12.18;5.28;;;-1.50;99.90;;;;;;5010639;28;20052;-71
2022/01/19 00:23:44;;;;;;;8.57;7.72;;;-1.50;99.90;;;;;;5013258;28;20054;-70
2022/01/19 00:26:11;;;;;;;4.68;4.03;;;-1.50;99.90;;;;;;4998335;28;20046;-70
2022/01/19 00:28:38;;;;;;;8.35;4.82;;;-1.50;99.90;;;;;;5011257;28;20046;-69
2022/01/19 00:31:06;;;;;;;8.05;4.40;;;-1.40;99.90;;;;;;4978425;28;20054;-70
2022/01/19 00:33:34;;;;;;;5.18;4.50;;;-1.40;99.90;;;;;;5006838;28;20046;-70
2022/01/19 00:36:02;;;;;;;8.00;4.97;;;-1.40;99.90;;;;;;5024190;28;20057;-71
2022/01/19 00:38:29;;;;;;;5.68;4.82;;;-1.40;99.90;;;;;;5013161;28;20134;-70
2022/01/19 00:40:57;;;;;;;9.98;6.53;;;-1.30;99.90;;;;;;5001415;28;20144;-70
2022/01/19 00:43:25;;;;;;;6.57;5.25;;;-1.30;99.90;;;;;;5001294;28;20125;-71
2022/01/19 00:45:53;;;;;;;10.15;4.88;;;-1.30;99.90;;;;;;5020365;28;20050;-71
2022/01/19 00:48:20;;;;;;;11.02;5.78;;;-1.20;99.90;;;;;;5008841;28;20130;-70
2022/01/19 00:50:50;;;;;;;6.07;5.47;;;-1.10;99.90;;;;;;5011496;28;20046;-70
2022/01/19 00:53:18;;;;;;;7.88;5.05;;;-1.10;99.90;;;;;;5004629;28;20143;-70
2022/01/19 00:55:45;;;;;;;16.88;5.72;;;-1.00;99.90;;;;;;5007955;28;20573;-70
2022/01/19 00:58:13;;;;;;;8.40;5.78;;;-1.00;99.90;;;;;;5010721;28;20077;-69
2022/01/19 01:00:41;;;;;;;7.20;5.60;;;-1.00;99.90;;;;;;5023649;28;20046;-70
2022/01/19 01:03:08;;;;;;;16.30;7.43;;;-1.00;99.90;;;;;;5012081;28;20050;-71
2022/01/19 01:05:35;;;;;;;7.65;5.50;;;-0.90;99.90;;;;;;5001633;28;20414;-70
2022/01/19 01:08:05;;;;;;;12.30;6.90;;;-0.80;99.90;;;;;;5005639;28;20054;-70
2022/01/19 01:10:40;;;;;;;13.85;6.90;;;-0.70;99.90;;;;;;4993158;28;20133;-69
2022/01/19 01:13:23;;;;;;;11.50;6.97;;;-0.70;99.90;;;;;;4993330;28;20073;-69
2022/01/19 01:16:02;;;;;;;15.27;5.18;;;-0.70;99.90;;;;;;5011132;28;20589;-69
2022/01/19 01:18:32;;;;;;;9.45;5.43;;;-0.60;99.90;;;;;;4978527;28;20050;-69
2022/01/19 01:21:03;;;;;;;9.43;4.90;;;-0.60;99.90;;;;;;4931319;28;1374742;-69
2022/01/19 01:23:35;;;;;;;7.70;5.65;;;-0.60;99.90;;;;;;5007112;28;20049;-69
2022/01/19 01:26:04;;;;;;;8.80;5.63;;;-0.50;99.90;;;;;;4995011;28;20425;-69
2022/01/19 01:28:32;;;;;;;8.63;5.53;;;-0.50;99.90;;;;;;4993955;28;20300;-70
2022/01/19 01:30:59;;;;;;;7.30;5.55;;;-0.50;99.90;;;;;;4994042;28;20061;-69
2022/01/19 01:33:27;;;;;;;9.38;5.80;;;-0.50;99.90;;;;;;5004725;28;20522;-70
2022/01/19 01:35:55;;;;;;;11.57;5.85;;;-0.50;99.90;;;;;;5008339;28;20568;-70
2022/01/19 01:38:24;;;;;;;10.20;6.40;;;-0.50;99.90;;;;;;4995638;28;20050;-69
2022/01/19 01:40:53;;;;;;;12.02;7.80;;;-0.40;99.90;;;;;;5005211;28;20061;-69
2022/01/19 01:43:21;;;;;;;9.45;7.00;;;-0.40;99.90;;;;;;5011475;28;20522;-69
2022/01/19 01:45:53;;;;;;;9.13;6.45;;;-0.40;99.90;;;;;;4980288;28;20249;-69
2022/01/19 01:48:24;;;;;;;10.27;6.78;;;-0.30;99.90;;;;;;5011835;28;20116;-69
2022/01/19 01:54:05;;;;;;;8.07;7.07;;;-0.50;99.90;;;;;;4999086;28;20100;-69
2022/01/19 01:56:34;;;;;;;11.20;7.45;;;-0.40;99.90;;;;;;5008929;28;20061;-70
2022/01/19 01:59:05;;;;;;;11.35;6.97;;;-0.40;99.90;;;;;;4983754;28;20120;-70
2022/01/19 02:02:05;;;;;;;8.10;7.28;;;-0.40;99.90;;;;;;4989526;28;20180;-71
2022/01/19 02:04:37;;;;;;;10.38;8.15;;;-0.40;99.90;;;;;;4997761;28;20195;-69
2022/01/19 02:07:30;;;;;;;10.82;7.88;;;-0.40;99.90;;;;;;5012408;28;20049;-69
2022/01/19 02:10:04;;;;;;;12.88;6.75;;;-0.40;99.90;;;;;;4995950;28;20316;-69
2022/01/19 02:23:38;;;;;;;11.38;9.18;;;-0.30;99.90;;;;;;4995115;28;20096;-69
2022/01/19 02:26:12;;;;;;;12.70;8.65;;;-0.30;99.90;;;;;;4993735;28;20076;-70
2022/01/19 02:29:00;;;;;;;17.15;9.95;;;-0.30;99.90;;;;;;5012693;28;20053;-70
2022/01/19 02:42:40;;;;;;;36.95;18.88;;;0.00;99.90;;;;;;4987226;28;20042;-70
2022/01/19 02:50:40;;;;;;;19.05;8.68;;;0.10;99.90;;;;;;4983753;28;20062;-70
2022/01/19 02:53:09;;;;;;;16.40;8.48;;;0.10;99.90;;;;;;4991571;28;20141;-74
2022/01/19 02:55:37;;;;;;;13.98;7.63;;;0.20;99.90;;;;;;5006991;28;20061;-74
2022/01/19 02:58:04;;;;;;;11.05;7.75;;;0.20;99.90;;;;;;4991373;28;20070;-74
2022/01/19 03:08:42;;;;;;;13.60;8.18;;;0.30;99.90;;;;;;4993491;28;20046;-75
2022/01/19 03:09:05;;;;;;;;;;;0.30;99.90;;;;;;4999479;28;20049;-75
2022/01/19 03:11:36;;;;;;;13.65;8.80;;;0.40;99.90;;;;;;4975815;28;20024;-74
2022/01/19 03:14:07;;;;;;;42.35;30.90;;;0.50;99.90;;;;;;5005606;28;20042;-74
2022/01/19 03:16:35;;;;;;;15.00;8.70;;;0.50;99.90;;;;;;5001802;28;20644;-75
2022/01/19 03:19:03;;;;;;;11.85;7.53;;;0.50;99.90;;;;;;4996704;28;20061;-75
2022/01/19 03:21:30;;;;;;;13.85;7.00;;;0.50;99.90;;;;;;4989609;28;20053;-74
2022/01/19 03:23:58;;;;;;;15.35;7.35;;;0.60;99.90;;;;;;4990178;28;20533;-75
2022/01/19 03:26:27;;;;;;;14.00;8.40;;;0.60;99.90;;;;;;4991845;28;20074;-75
2022/01/19 03:29:14;;;;;;;18.00;9.77;;;0.50;99.90;;;;;;5001657;28;20177;-72
2022/01/19 03:31:42;;;;;;;19.55;9.95;;;0.60;99.90;;;;;;4992687;28;20142;-76
2022/01/19 03:34:11;;;;;;;20.35;10.40;;;0.60;99.90;;;;;;4990258;28;20100;-74
2022/01/19 03:36:40;;;;;;;21.98;10.82;;;0.50;99.90;;;;;;5007893;28;20053;-74
2022/01/19 03:39:08;;;;;;;22.38;10.60;;;0.60;99.90;;;;;;4964706;28;20046;-74
2022/01/19 03:41:36;;;;;;;20.17;10.23;;;0.60;99.90;;;;;;4988759;28;20050;-75
2022/01/19 03:44:05;;;;;;;22.10;10.23;;;0.60;99.90;;;;;;4975650;28;20137;-70
2022/01/19 03:46:34;;;;;;;21.45;11.00;;;0.60;99.90;;;;;;4992887;28;20046;-71
2022/01/19 03:49:12;;;;;;;15.52;10.48;;;0.60;99.90;;;;;;4998867;28;20573;-71
2022/01/19 03:51:40;;;;;;;19.83;11.57;;;0.60;99.90;;;;;;4981412;28;20486;-71
2022/01/19 03:54:07;;;;;;;14.98;10.73;;;0.70;99.90;;;;;;5006719;28;20046;-70
2022/01/19 03:56:37;;;;;;;19.98;8.75;;;0.60;99.90;;;;;;4980473;28;20058;-70
2022/01/19 03:59:06;;;;;;;25.63;9.10;;;0.60;99.90;;;;;;5007143;28;20107;-71
2022/01/19 04:01:34;;;;;;;22.23;9.63;;;0.60;99.90;;;;;;4967945;28;20054;-71
2022/01/19 04:06:59;;;;;;;18.80;10.35;;;0.70;99.90;;;;;;4992279;28;20586;-70
2022/01/19 04:09:30;;;;;;;17.63;9.93;;;0.70;99.90;;;;;;4974268;28;20145;-71
2022/01/19 04:11:59;;;;;;;21.95;11.30;;;0.70;99.90;;;;;;5016152;28;20061;-72
2022/01/19 04:14:27;;;;;;;31.38;14.68;;;0.80;99.90;;;;;;4987175;28;20076;-73
2022/01/19 04:16:59;;;;;;;23.67;11.45;;;0.80;99.90;;;;;;5006081;28;20042;-72
2022/01/19 04:19:32;;;;;;;26.33;12.02;;;0.70;99.90;;;;;;4991662;28;20418;-77
2022/01/19 04:22:09;;;;;;;24.42;13.40;;;0.80;99.90;;;;;;4994138;28;20054;-74
2022/01/19 04:24:37;;;;;;;27.02;12.57;;;0.80;99.90;;;;;;5004337;28;20136;-76
2022/01/19 04:30:04;;;;;;;25.05;14.07;;;0.80;99.90;;;;;;5017228;28;20053;-74
2022/01/19 04:32:44;;;;;;;32.92;14.60;;;0.80;99.90;;;;;;4991504;28;20050;-75
2022/01/19 04:35:17;;;;;;;25.60;13.75;;;0.90;99.90;;;;;;4992859;28;20053;-75
2022/01/19 04:38:44;;;;;;;36.25;15.55;;;0.90;99.90;;;;;;4993214;28;20050;-75
2022/01/19 04:47:24;;;;;;;40.70;17.92;;;0.90;99.90;;;;;;4969880;28;20124;-75
2022/01/19 05:04:23;;;;;;;29.67;15.23;;;1.00;99.90;;;;;;4993614;28;20069;-75
2022/01/19 05:07:08;;;;;;;30.08;15.15;;;1.10;99.90;;;;;;5011057;28;20506;-75
2022/01/19 05:15:19;;;;;;;27.17;21.20;;;1.10;99.90;;;;;;4977254;28;20045;-74
2022/01/19 05:17:48;;;;;;;17.65;11.50;;;1.10;99.90;;;;;;4979909;28;20042;-74
2022/01/19 05:20:16;;;;;;;16.98;11.70;;;1.10;99.90;;;;;;5012968;28;20050;-75
2022/01/19 05:22:44;;;;;;;17.48;11.90;;;1.10;99.90;;;;;;4994963;28;20042;-74
2022/01/19 05:25:17;;;;;;;18.05;11.02;;;1.10;99.90;;;;;;4995718;28;20454;-74
2022/01/19 05:27:47;;;;;;;14.05;10.63;;;1.20;99.90;;;;;;5011035;28;20057;-75
2022/01/19 05:30:17;;;;;;;10.90;9.98;;;1.10;99.90;;;;;;4978059;28;20049;-75
2022/01/19 05:32:47;;;;;;;14.43;11.35;;;1.20;99.90;;;;;;5008596;28;20050;-74
2022/01/19 05:35:16;;;;;;;11.82;10.20;;;1.20;99.90;;;;;;5000052;28;20617;-73
2022/01/19 05:38:06;;;;;;;14.65;11.65;;;1.20;99.90;;;;;;4976700;28;20434;-76
2022/01/19 05:40:54;;;;;;;12.90;10.82;;;1.20;99.90;;;;;;5010900;28;20084;-74
2022/01/19 05:43:22;;;;;;;11.88;10.45;;;1.30;99.90;;;;;;4993369;28;20057;-74
2022/01/19 05:45:50;;;;;;;17.65;13.00;;;1.30;99.90;;;;;;5009127;28;20046;-74
2022/01/19 05:48:24;;;;;;;15.75;10.50;;;1.30;99.90;;;;;;5009668;28;20500;-75
2022/01/19 05:50:54;;;;;;;;;;;1.40;99.90;;;;;;5010169;28;20427;-75
2022/01/19 05:53:27;;;;;;;10.98;9.80;;;1.40;99.90;;;;;;4978571;28;20353;-75
2022/01/19 05:55:54;;;;;;;15.93;10.10;;;1.40;99.90;;;;;;5011012;28;20085;-74
2022/01/19 05:58:22;;;;;;;11.75;10.38;;;1.40;99.90;;;;;;5013083;28;20069;-75
2022/01/19 06:00:53;;;;;;;14.15;12.60;;;1.40;99.90;;;;;;5027100;28;20096;-75
2022/01/19 06:03:23;;;;;;;15.70;11.55;;;1.50;99.90;;;;;;5011937;28;20050;-76
2022/01/19 06:06:09;;;;;;;15.55;14.20;;;1.50;99.90;;;;;;4994427;28;20411;-75
2022/01/19 06:09:02;;;;;;;41.00;18.08;;;1.50;99.90;;;;;;5012792;28;20510;-76
2022/01/19 06:11:31;;;;;;;17.08;15.70;;;1.50;99.90;;;;;;5027869;28;20038;-77
2022/01/19 06:14:00;;;;;;;19.23;15.93;;;1.60;99.90;;;;;;4991404;28;20507;-76
2022/01/19 06:16:27;;;;;;;20.52;16.88;;;1.60;99.90;;;;;;4992024;28;20062;-76
2022/01/19 06:18:56;;;;;;;18.90;17.33;;;1.60;99.90;;;;;;4991358;28;20054;-76
2022/01/19 06:21:24;;;;;;;18.70;17.10;;;1.60;99.90;;;;;;4992223;28;20053;-76
2022/01/19 06:23:54;;;;;;;20.80;16.85;;;1.60;99.90;;;;;;4977488;28;20108;-76
2022/01/19 06:26:24;;;;;;;16.88;12.30;;;1.60;99.90;;;;;;5013069;28;20049;-77
2022/01/19 06:28:53;;;;;;;16.58;12.50;;;1.60;99.90;;;;;;4977138;28;20075;-76
2022/01/19 06:31:20;;;;;;;13.50;12.35;;;1.70;99.90;;;;;;4996081;28;20499;-76
2022/01/19 06:33:50;;;;;;;14.77;13.02;;;1.70;99.90;;;;;;4973589;28;20041;-76
2022/01/19 06:36:22;;;;;;;23.63;15.40;;;1.70;99.90;;;;;;4999692;28;20054;-76
2022/01/19 06:38:55;;;;;;;42.30;20.38;;;1.70;99.90;;;;;;5018087;28;20054;-76
2022/01/19 06:41:29;;;;;;;15.65;12.65;;;1.70;99.90;;;;;;5018070;28;20053;-76
2022/01/19 06:43:56;;;;;;;19.20;17.17;;;1.70;99.90;;;;;;4987874;28;20065;-76
2022/01/19 06:46:24;;;;;;;56.35;37.42;;;1.80;99.90;;;;;;4993727;28;20042;-76
2022/01/19 06:48:52;;;;;;;19.15;17.63;;;1.80;99.90;;;;;;4990778;28;20082;-76
2022/01/19 06:51:20;;;;;;;20.05;16.90;;;1.80;99.90;;;;;;5006867;28;20077;-76
2022/01/19 06:53:56;;;;;;;17.85;16.35;;;1.80;99.90;;;;;;4996763;28;20041;-76
2022/01/19 06:56:32;;;;;;;17.33;15.60;;;1.70;99.90;;;;;;4932134;28;20054;-77
2022/01/19 06:59:17;;;;;;;18.88;16.92;;;1.70;99.90;;;;;;4993852;28;20453;-76
2022/01/19 07:02:03;;;;;;;17.63;16.17;;;1.70;99.90;;;;;;5010715;28;20093;-75
2022/01/19 07:04:48;;;;;;;19.02;17.27;;;1.70;99.90;;;;;;5009752;28;20054;-75
2022/01/19 07:07:22;;;;;;;16.90;15.10;;;1.70;99.90;;;;;;4993115;28;20058;-75
2022/01/19 07:10:02;;;;;;;17.48;15.50;;;1.70;99.90;;;;;;4976990;28;20458;-75
2022/01/19 07:12:36;;;;;;;18.92;14.85;;;1.70;99.90;;;;;;4973473;28;20491;-75
2022/01/19 07:15:07;;;;;;;16.77;15.02;;;1.70;99.90;;;;;;4975975;28;20527;-75
2022/01/19 07:17:36;;;;;;;15.70;14.30;;;1.70;99.90;;;;;;4993231;28;20062;-75
2022/01/19 07:20:04;;;;;;;16.20;14.27;;;1.70;99.90;;;;;;4993511;28;20085;-75
2022/01/19 07:22:33;;;;;;;17.20;15.40;;;1.80;99.90;;;;;;5000552;28;20071;-75
2022/01/19 07:25:06;;;;;;;16.08;14.43;;;1.80;99.90;;;;;;5001068;28;20045;-75
2022/01/19 07:27:33;;;;;;;16.58;15.43;;;1.70;99.90;;;;;;5009257;28;20058;-74
2022/01/19 07:30:01;;;;;;;18.20;16.60;;;1.80;99.90;;;;;;5009257;28;20514;-75
2022/01/19 07:32:35;;;;;;;27.08;24.77;;;1.80;99.90;;;;;;4992038;28;20503;-75
2022/01/19 07:35:07;;;;;;;24.00;22.20;;;1.90;99.90;;;;;;5008314;28;20056;-76
2022/01/19 07:37:34;;;;;;;25.27;23.15;;;1.90;99.90;;;;;;4990863;28;20077;-76
2022/01/19 07:40:04;;;;;;;46.70;41.13;;;1.90;99.90;;;;;;4990808;28;20050;-76
2022/01/19 07:42:32;;;;;;;17.73;8.63;;;1.90;99.90;;;;;;4991243;28;20127;-76
2022/01/19 07:45:07;;;;;;;12.85;8.63;;;1.90;99.90;;;;;;5008487;28;20058;-76
2022/01/19 07:47:45;;;;;;;19.55;11.40;;;1.90;99.90;;;;;;4990295;28;20061;-76
2022/01/19 07:50:31;;;;;;;18.50;11.60;;;1.90;99.90;;;;;;5006802;28;20077;-77
2022/01/19 07:53:09;;;;;;;15.18;8.07;;;1.90;99.90;;;;;;4997316;28;20050;-76
2022/01/19 07:55:45;;;;;;;14.40;8.40;;;1.90;99.90;;;;;;4998740;28;20054;-76
2022/01/19 07:58:45;;;;;;;15.73;9.60;;;1.90;99.90;;;;;;4990805;28;20155;-77
2022/01/19 08:01:16;;;;;;;11.48;8.13;;;1.90;99.90;;;;;;4990129;28;20498;-74
2022/01/19 08:04:02;;;;;;;13.63;8.43;;;1.90;99.90;;;;;;4989635;28;20141;-76
2022/01/19 08:06:36;;;;;;;20.50;11.18;;;1.90;99.90;;;;;;4994849;28;20753;-76
2022/01/19 08:09:04;;;;;;;29.08;10.73;;;2.00;99.90;;;;;;4991599;28;20450;-76
2022/01/19 08:11:34;;;;;;;27.35;12.30;;;2.00;99.90;;;;;;4992459;28;20536;-76
2022/01/19 08:14:25;;;;;;;33.72;11.95;;;2.10;99.90;;;;;;5010484;28;20054;-76
2022/01/19 08:16:54;;;;;;;25.95;12.55;;;2.20;99.90;;;;;;5012121;28;20111;-76
2022/01/19 08:19:25;;;;;;;77.75;69.03;;;2.20;99.90;;;;;;5012623;28;20135;-76
2022/01/19 08:21:53;;;;;;;44.40;39.78;;;2.30;99.90;;;;;;5017066;28;20058;-76
2022/01/19 08:24:21;;;;;;;41.20;35.90;;;2.40;99.90;;;;;;4976130;28;20100;-76
2022/01/19 08:26:54;;;;;;;43.80;39.60;;;2.50;99.90;;;;;;5012970;28;20418;-75
2022/01/19 08:29:26;;;;;;;40.25;36.55;;;2.50;99.90;;;;;;5013000;28;20046;-75
2022/01/19 08:31:59;;;;;;;38.80;35.30;;;2.50;99.90;;;;;;4994406;28;20426;-76
2022/01/19 08:34:50;;;;;;;32.45;29.52;;;2.60;99.90;;;;;;5012989;28;20224;-76
2022/01/19 08:37:26;;;;;;;36.80;33.55;;;2.50;99.90;;;;;;4999672;28;20410;-75
2022/01/19 08:40:03;;;;;;;39.67;36.28;;;2.60;99.90;;;;;;5024818;28;20046;-75
2022/01/19 08:42:36;;;;;;;37.00;34.08;;;2.60;99.90;;;;;;4993036;28;20153;-75
2022/01/19 08:45:07;;;;;;;38.55;35.25;;;2.60;99.90;;;;;;5009538;28;20426;-76
2022/01/19 08:47:36;;;;;;;41.13;37.08;;;2.70;99.90;;;;;;5009372;28;20467;-76
2022/01/19 08:50:14;;;;;;;41.97;35.95;;;2.70;99.90;;;;;;4976735;28;20046;-76
2022/01/19 08:53:06;;;;;;;47.08;42.03;;;2.70;99.90;;;;;;4992795;28;20082;-76
2022/01/19 08:55:40;;;;;;;45.42;40.65;;;2.70;99.90;;;;;;4973296;28;20085;-75
2022/01/19 08:58:10;;;;;;;41.35;26.85;;;2.70;99.90;;;;;;5003210;28;20534;-76
2022/01/19 09:00:38;;;;;;;42.75;27.52;;;2.80;99.90;;;;;;5029309;28;20057;-74
2022/01/19 09:03:06;;;;;;;40.17;25.50;;;2.80;99.90;;;;;;5018524;28;20077;-74
2022/01/19 09:05:33;;;;;;;29.83;26.45;;;2.90;99.90;;;;;;5013257;28;20104;-76
2022/01/19 09:08:01;;;;;;;32.05;27.20;;;3.00;99.90;;;;;;5013568;28;20076;-75
2022/01/19 09:10:28;;;;;;;37.95;28.80;;;2.90;99.90;;;;;;5013216;28;20050;-76
2022/01/19 09:12:56;;;;;;;39.17;31.45;;;2.90;99.90;;;;;;4995579;28;20049;-75
2022/01/19 09:15:25;;;;;;;36.28;32.38;;;3.00;99.90;;;;;;5013222;28;20050;-75
2022/01/19 09:17:53;;;;;;;53.60;28.35;;;3.10;99.90;;;;;;5013213;28;20075;-76
2022/01/19 09:20:21;;;;;;;51.85;29.42;;;3.20;99.90;;;;;;4978347;28;20054;-75
2022/01/19 09:22:50;;;;;;;36.88;30.55;;;3.20;99.90;;;;;;4990493;28;20042;-78
2022/01/19 09:25:17;;;;;;;40.38;31.85;;;3.20;99.90;;;;;;5012156;28;20053;-75
2022/01/19 09:27:45;;;;;;;52.92;36.00;;;3.20;99.90;;;;;;4994843;28;20508;-75
2022/01/19 09:30:16;;;;;;;41.25;29.10;;;3.30;99.90;;;;;;5012728;28;20530;-74
2022/01/19 09:32:55;;;;;;;32.08;14.45;;;3.50;99.90;;;;;;5013028;28;20049;-74
2022/01/19 09:35:26;;;;;;;43.33;18.67;;;3.60;99.90;;;;;;5012493;28;20049;-74
2022/01/19 09:37:54;;;;;;;27.88;22.73;;;3.60;99.90;;;;;;5012494;28;20057;-73
2022/01/19 09:40:22;;;;;;;42.17;33.47;;;3.50;99.90;;;;;;5012526;28;20049;-75
2022/01/19 09:42:50;;;;;;;41.92;35.47;;;3.40;99.90;;;;;;5012743;28;20387;-75
2022/01/19 09:45:17;;;;;;;45.80;41.45;;;3.20;99.90;;;;;;5012686;28;20058;-75
2022/01/19 09:47:48;;;;;;;51.67;47.42;;;3.20;99.90;;;;;;5007574;28;20104;-74
2022/01/19 09:50:15;;;;;;;43.53;38.83;;;3.10;99.90;;;;;;5011301;28;20049;-74
2022/01/19 09:52:42;;;;;;;74.18;69.18;;;3.00;99.90;;;;;;5012180;28;20052;-74
2022/01/19 09:55:11;;;;;;;57.20;52.92;;;3.00;99.90;;;;;;5012400;28;20046;-75
2022/01/19 09:57:38;;;;;;;58.33;43.97;;;3.10;99.90;;;;;;5012114;28;20054;-75
2022/01/19 10:00:07;;;;;;;66.57;60.58;;;3.10;99.90;;;;;;5012339;28;20426;-74
2022/01/19 10:02:40;;;;;;;73.20;67.88;;;3.10;99.90;;;;;;5012319;28;20054;-75
2022/01/19 10:05:10;;;;;;;57.90;53.53;;;3.00;99.90;;;;;;5012158;28;20052;-74
2022/01/19 10:07:38;;;;;;;55.47;51.65;;;2.90;99.90;;;;;;5012145;28;20089;-73
2022/01/19 10:10:09;;;;;;;65.25;61.08;;;2.90;99.90;;;;;;5012183;28;20046;-74
2022/01/19 10:18:16;;;;;;;62.88;58.17;;;2.90;99.90;;;;;;4993943;28;20053;-74
2022/01/19 10:20:48;;;;;;;61.83;57.65;;;3.00;99.90;;;;;;5010090;28;20053;-74
2022/01/19 10:23:38;;;;;;;61.67;57.38;;;3.00;99.90;;;;;;5012237;28;20054;-74
2022/01/19 10:26:08;;;;;;;62.92;58.95;;;3.00;99.90;;;;;;4975880;28;20046;-74
2022/01/19 10:28:59;;;;;;;80.72;75.47;;;3.00;99.90;;;;;;5012179;28;20050;-74
2022/01/19 10:31:28;;;;;;;64.40;60.58;;;2.90;99.90;;;;;;5011604;28;20041;-75
2022/01/19 10:34:16;;;;;;;1999.90;999.90;;;2.80;99.90;;;;;;4994302;28;20420;-74
2022/01/19 10:36:48;;;;;;;1999.90;999.90;;;2.70;99.90;;;;;;5011092;28;20060;-73
2022/01/19 10:39:16;;;;;;;1999.90;999.90;;;2.80;99.90;;;;;;5018606;28;20057;-75
2022/01/19 10:42:06;;;;;;;1999.90;999.90;;;2.80;99.90;;;;;;5011617;28;20516;-75
2022/01/19 10:44:37;;;;;;;1999.90;999.90;;;2.90;99.90;;;;;;5010906;28;20049;-75
2022/01/19 10:47:05;;;;;;;1999.90;999.90;;;2.90;99.90;;;;;;5018102;28;20049;-75
2022/01/19 10:49:53;;;;;;;1999.90;999.90;;;2.90;99.90;;;;;;5015076;28;20054;-73
2022/01/19 10:52:31;;;;;;;1999.90;999.90;;;3.00;99.90;;;;;;5016542;28;20049;-74
2022/01/19 10:55:00;;;;;;;1999.90;999.90;;;3.00;99.90;;;;;;5012873;28;20049;-73
2022/01/19 10:57:30;;;;;;;1999.90;999.90;;;2.90;99.90;;;;;;4991053;28;20096;-74
2022/01/19 11:00:16;;;;;;;1999.90;999.90;;;3.00;99.90;;;;;;5022243;28;20411;-73
2022/01/19 11:02:46;;;;;;;1999.90;999.90;;;3.10;99.90;;;;;;5003474;28;20544;-73
2022/01/19 11:05:14;;;;;;;1999.90;999.90;;;3.00;99.90;;;;;;5030593;28;20045;-72
2022/01/19 11:07:42;;;;;;;39.35;36.35;;;2.90;99.90;;;;;;5030681;28;20053;-72
2022/01/19 11:10:17;;;;;;;65.75;61.25;;;2.90;99.90;;;;;;5013010;28;20529;-74
2022/01/19 11:12:47;;;;;;;48.13;45.22;;;2.70;99.90;;;;;;5000848;28;20091;-75
2022/01/19 11:15:18;;;;;;;62.95;59.50;;;2.70;99.90;;;;;;5003867;28;20093;-75
2022/01/19 11:17:46;;;;;;;1999.90;999.90;;;2.60;99.90;;;;;;5009218;28;20156;-74
2022/01/19 11:20:18;;;;;;;1999.90;999.90;;;2.50;99.90;;;;;;4989093;28;20105;-73
2022/01/19 11:23:03;;;;;;;1999.90;999.90;;;2.40;99.90;;;;;;5009376;28;20053;-73
2022/01/19 11:25:46;;;;;;;1999.90;999.90;;;2.40;99.90;;;;;;5016887;28;20107;-73
2022/01/19 11:28:32;;;;;;;30.13;28.23;;;2.30;99.90;;;;;;5008391;28;20049;-75
2022/01/19 11:31:00;;;;;;;55.60;52.53;;;2.40;99.90;;;;;;5009729;28;20050;-75
2022/01/19 11:33:30;;;;;;;41.92;39.42;;;2.40;99.90;;;;;;5010254;28;20060;-75
2022/01/19 11:36:00;;;;;;;38.80;36.33;;;2.40;99.90;;;;;;5009944;28;20050;-76
2022/01/19 11:38:40;;;;;;;47.72;44.72;;;2.40;99.90;;;;;;5010541;28;20088;-74
2022/01/19 11:41:44;;;;;;;34.83;32.70;;;2.40;99.90;;;;;;5010343;28;20450;-75
2022/01/19 11:44:17;;;;;;;43.53;41.25;;;2.40;99.90;;;;;;5010616;28;20053;-74
2022/01/19 11:46:46;;;;;;;;;;;2.40;99.90;;;;;;5026477;28;20510;-73
2022/01/19 11:49:17;;;;;;;35.97;33.65;;;2.40;99.90;;;;;;5006119;28;20396;-73
2022/01/19 11:51:47;;;;;;;43.80;40.75;;;2.40;99.90;;;;;;5001034;28;20128;-73
2022/01/19 11:54:21;;;;;;;27.45;25.42;;;2.40;99.90;;;;;;5009872;28;20045;-73
2022/01/19 11:57:14;;;;;;;32.78;30.05;;;2.40;99.90;;;;;;4991781;28;20061;-72
2022/01/19 12:00:22;;;;;;;32.70;30.10;;;2.50;99.90;;;;;;5012453;28;20073;-74
2022/01/19 12:02:56;;;;;;;27.88;25.70;;;2.50;99.90;;;;;;5013963;28;20541;-73
2022/01/19 12:05:30;;;;;;;34.03;31.65;;;2.50;99.90;;;;;;5013257;28;20045;-75
2022/01/19 12:08:01;;;;;;;31.90;29.88;;;2.50;99.90;;;;;;4995590;28;20511;-72
2022/01/19 12:10:47;;;;;;;35.70;32.88;;;2.40;99.90;;;;;;5012535;28;20050;-72
2022/01/19 12:13:30;;;;;;;29.58;27.70;;;2.30;99.90;;;;;;5013835;28;20042;-77
2022/01/19 12:16:05;;;;;;;31.42;28.77;;;2.20;99.90;;;;;;5014202;28;20104;-75
2022/01/19 12:18:48;;;;;;;27.95;25.90;;;2.20;99.90;;;;;;5012882;28;20076;-74
2022/01/19 12:21:41;;;;;;;37.65;34.58;;;2.10;99.90;;;;;;5009615;28;20045;-74
2022/01/19 12:24:28;;;;;;;32.07;30.07;;;2.10;99.90;;;;;;5015904;28;20046;-74
2022/01/19 12:27:05;;;;;;;30.40;28.25;;;2.10;99.90;;;;;;5015956;28;20328;-74
2022/01/19 12:29:50;;;;;;;35.05;32.80;;;2.10;99.90;;;;;;5010685;28;20050;-74
2022/01/19 12:32:53;;;;;;;37.10;34.10;;;2.20;99.90;;;;;;5013020;28;20076;-75
2022/01/19 12:35:35;;;;;;;36.50;33.70;;;2.10;99.90;;;;;;4991043;28;20058;-76
2022/01/19 12:38:07;;;;;;;35.42;32.55;;;2.10;99.90;;;;;;5001429;28;20085;-75
2022/01/19 12:40:52;;;;;;;16.25;8.25;;;2.00;99.90;;;;;;5013413;28;20053;-77
2022/01/19 12:43:37;;;;;;;15.30;8.15;;;2.10;99.90;;;;;;5014139;28;20119;-74
2022/01/19 12:46:10;;;;;;;18.13;9.30;;;2.00;99.90;;;;;;5014555;28;20108;-77
2022/01/19 12:48:44;;;;;;;12.00;7.85;;;2.00;99.90;;;;;;4995692;28;20046;-75
2022/01/19 12:51:39;;;;;;;23.90;18.73;;;2.00;99.90;;;;;;5013371;28;20545;-72
2022/01/19 12:54:09;;;;;;;10.23;6.40;;;2.00;99.90;;;;;;5013933;28;20522;-71
2022/01/19 12:56:36;;;;;;;15.02;7.65;;;2.10;99.90;;;;;;4994713;28;20058;-71
2022/01/19 12:59:09;;;;;;;8.95;6.63;;;2.10;99.90;;;;;;5012947;28;20066;-72
2022/01/19 13:01:36;;;;;;;;;;;2.10;99.90;;;;;;5014012;28;20050;-73
2022/01/19 13:04:04;;;;;;;9.80;6.78;;;2.00;99.90;;;;;;5012404;28;19991;-73
2022/01/19 13:06:33;;;;;;;9.30;6.25;;;2.10;99.90;;;;;;5008389;28;20598;-73
2022/01/19 13:09:12;;;;;;;6.32;5.40;;;2.10;99.90;;;;;;5005034;28;20458;-72
2022/01/19 13:11:46;;;;;;;14.25;7.93;;;2.10;99.90;;;;;;5009853;28;20427;-71
2022/01/19 13:14:16;;;;;;;13.75;8.05;;;2.00;99.90;;;;;;4994931;28;20050;-71
2022/01/19 13:16:47;;;;;;;8.88;6.57;;;2.10;99.90;;;;;;5011309;28;20485;-73
2022/01/19 13:19:19;;;;;;;12.80;6.93;;;2.10;99.90;;;;;;4992587;28;20054;-72
2022/01/19 13:21:50;;;;;;;13.38;6.78;;;2.10;99.90;;;;;;4976130;28;20430;-72
2022/01/19 13:24:25;;;;;;;8.32;7.15;;;2.10;99.90;;;;;;5004389;28;20050;-71
2022/01/19 13:26:57;;;;;;;16.80;9.65;;;2.10;99.90;;;;;;5005692;28;20052;-70
2022/01/19 13:29:34;;;;;;;13.30;7.47;;;2.20;99.90;;;;;;5009445;28;20072;-70
2022/01/19 13:32:09;;;;;;;12.43;8.75;;;2.10;99.90;;;;;;4996145;28;20149;-70
2022/01/19 13:34:54;;;;;;;12.73;7.60;;;2.30;99.90;;;;;;5004536;28;20532;-73
2022/01/19 13:37:24;;;;;;;12.02;6.30;;;2.30;99.90;;;;;;5012922;28;20042;-72
2022/01/19 13:40:04;;;;;;;10.18;6.28;;;2.30;99.90;;;;;;5011536;28;20045;-71
2022/01/19 13:42:43;;;;;;;11.10;6.60;;;2.30;99.90;;;;;;4998869;28;20077;-71
2022/01/19 13:45:25;;;;;;;12.88;6.35;;;2.20;99.90;;;;;;4991844;28;20499;-70
2022/01/19 13:48:04;;;;;;;17.07;8.03;;;2.20;99.90;;;;;;5018276;28;20074;-73
2022/01/19 13:50:33;;;;;;;11.70;7.28;;;2.30;99.90;;;;;;4995122;28;20144;-71
2022/01/19 13:53:01;;;;;;;11.90;7.40;;;2.30;99.90;;;;;;4994238;28;20068;-70
2022/01/19 13:55:32;;;;;;;11.07;6.60;;;2.40;99.90;;;;;;5012523;28;20050;-74
2022/01/19 13:58:22;;;;;;;8.65;5.72;;;2.30;99.90;;;;;;5008411;28;20050;-73
2022/01/19 14:01:15;;;;;;;9.73;6.10;;;2.30;99.90;;;;;;4990627;28;20156;-75
2022/01/19 14:03:48;;;;;;;14.50;7.00;;;2.40;99.90;;;;;;5010059;28;20426;-77
2022/01/19 14:06:25;;;;;;;13.65;7.45;;;2.40;99.90;;;;;;5010696;28;20056;-76
2022/01/19 14:09:11;;;;;;;11.98;6.60;;;2.40;99.90;;;;;;5011090;28;20053;-74
2022/01/19 14:11:40;;;;;;;8.75;6.15;;;2.40;99.90;;;;;;4998740;28;20138;-75
2022/01/19 14:14:09;;;;;;;7.85;6.38;;;2.40;99.90;;;;;;4993874;28;20153;-75
2022/01/19 14:16:45;;;;;;;12.57;6.45;;;2.40;99.90;;;;;;5009194;28;20080;-78
2022/01/19 14:19:20;;;;;;;14.50;5.88;;;2.50;99.90;;;;;;5011120;28;20072;-78
2022/01/19 14:22:16;;;;;;;15.48;7.85;;;2.50;99.90;;;;;;5010174;28;20057;-76
2022/01/19 14:24:50;;;;;;;10.50;6.13;;;2.50;99.90;;;;;;4991555;28;20140;-76
2022/01/19 14:27:39;;;;;;;10.40;6.22;;;2.60;99.90;;;;;;5008628;28;20049;-74